sensor_id;sensor_type;location;lat;lon;timestamp;temperature;humidity
59041;DHT22;44825;53.200;6.448;2022-10-17T00:00:16;13.20;99.90
59041;DHT22;44825;53.200;6.448;2022-10-17T00:02:42;13.20;99.90
59041;DHT22;44825;53.200;6.448;2022-10-17T00:05:09;13.20;99.90
59041;DHT22;44825;53.200;6.448;2022-10-17T00:07:36;13.20;99.90
59041;DHT22;44825;53.200;6.448;2022-10-17T00:10:03;13.10;99.90
59041;DHT22;44825;53.200;6.448;2022-10-17T00:12:31;13.20;99.90
59041;DHT22;44825;53.200;6.448;2022-10-17T00:14:58;13.20;99.90
59041;DHT22;44825;53.200;6.448;2022-10-17T00:17:25;13.20;99.90
59041;DHT22;44825;53.200;6.448;2022-10-17T00:19:51;13.10;99.90
59041;DHT22;44825;53.200;6.448;2022-10-17T00:22:18;13.10;99.90
59041;DHT22;44825;53.200;6.448;2022-10-17T00:24:45;13.00;99.90
59041;DHT22;44825;53.200;6.448;2022-10-17T00:27:11;13.00;99.90
59041;DHT22;44825;53.200;6.448;2022-10-17T00:29:39;13.00;99.90
59041;DHT22;44825;53.200;6.448;2022-10-17T00:32:06;12.90;99.90
59041;DHT22;44825;53.200;6.448;2022-10-17T00:34:33;12.90;99.90
59041;DHT22;44825;53.200;6.448;2022-10-17T00:36:59;12.90;99.90
59041;DHT22;44825;53.200;6.448;2022-10-17T00:39:26;12.80;99.90
59041;DHT22;44825;53.200;6.448;2022-10-17T00:41:52;12.90;99.90
59041;DHT22;44825;53.200;6.448;2022-10-17T00:47:07;12.90;99.90
59041;DHT22;44825;53.200;6.448;2022-10-17T00:49:35;12.90;99.90
59041;DHT22;44825;53.200;6.448;2022-10-17T00:52:03;12.90;99.90
59041;DHT22;44825;53.200;6.448;2022-10-17T00:54:32;13.00;99.90
59041;DHT22;44825;53.200;6.448;2022-10-17T00:56:59;12.90;99.90
59041;DHT22;44825;53.200;6.448;2022-10-17T00:59:27;12.90;99.90
59041;DHT22;44825;53.200;6.448;2022-10-17T01:01:55;12.90;99.90
59041;DHT22;44825;53.200;6.448;2022-10-17T01:04:26;12.90;99.90
59041;DHT22;44825;53.200;6.448;2022-10-17T01:06:53;12.90;99.90
59041;DHT22;44825;53.200;6.448;2022-10-17T01:09:19;12.90;99.90
59041;DHT22;44825;53.200;6.448;2022-10-17T01:11:48;12.90;99.90
59041;DHT22;44825;53.200;6.448;2022-10-17T01:14:17;13.00;99.90
59041;DHT22;44825;53.200;6.448;2022-10-17T01:16:50;13.00;99.90
59041;DHT22;44825;53.200;6.448;2022-10-17T01:19:32;13.10;99.90
59041;DHT22;44825;53.200;6.448;2022-10-17T01:22:00;13.10;99.90
59041;DHT22;44825;53.200;6.448;2022-10-17T01:24:36;13.10;99.90
59041;DHT22;44825;53.200;6.448;2022-10-17T01:27:13;13.10;99.90
59041;DHT22;44825;53.200;6.448;2022-10-17T01:32:29;13.10;99.90
59041;DHT22;44825;53.200;6.448;2022-10-17T01:34:59;13.10;99.90
59041;DHT22;44825;53.200;6.448;2022-10-17T01:37:27;13.20;99.90
59041;DHT22;44825;53.200;6.448;2022-10-17T01:39:58;13.20;99.90
59041;DHT22;44825;53.200;6.448;2022-10-17T01:42:27;13.20;99.90
59041;DHT22;44825;53.200;6.448;2022-10-17T01:44:57;13.30;99.90
59041;DHT22;44825;53.200;6.448;2022-10-17T01:47:25;13.30;99.90
59041;DHT22;44825;53.200;6.448;2022-10-17T01:49:54;13.30;99.90
59041;DHT22;44825;53.200;6.448;2022-10-17T01:52:23;13.30;99.90
59041;DHT22;44825;53.200;6.448;2022-10-17T01:54:51;13.30;99.90
59041;DHT22;44825;53.200;6.448;2022-10-17T01:57:19;13.40;99.90
59041;DHT22;44825;53.200;6.448;2022-10-17T01:59:47;13.40;99.90
59041;DHT22;44825;53.200;6.448;2022-10-17T02:02:17;13.40;99.90
59041;DHT22;44825;53.200;6.448;2022-10-17T02:04:44;13.50;99.90
59041;DHT22;44825;53.200;6.448;2022-10-17T02:07:13;13.50;99.90
59041;DHT22;44825;53.200;6.448;2022-10-17T02:09:39;13.50;99.90
59041;DHT22;44825;53.200;6.448;2022-10-17T02:12:10;13.50;99.90
59041;DHT22;44825;53.200;6.448;2022-10-17T02:14:43;13.40;99.90
59041;DHT22;44825;53.200;6.448;2022-10-17T02:17:13;13.40;99.90
59041;DHT22;44825;53.200;6.448;2022-10-17T02:19:46;13.50;99.90
59041;DHT22;44825;53.200;6.448;2022-10-17T02:22:19;13.40;99.90
59041;DHT22;44825;53.200;6.448;2022-10-17T02:24:48;13.40;99.90
59041;DHT22;44825;53.200;6.448;2022-10-17T02:27:19;13.40;99.90
59041;DHT22;44825;53.200;6.448;2022-10-17T02:29:55;13.40;99.90
59041;DHT22;44825;53.200;6.448;2022-10-17T02:32:25;13.40;99.90
59041;DHT22;44825;53.200;6.448;2022-10-17T02:34:54;13.40;99.90
59041;DHT22;44825;53.200;6.448;2022-10-17T02:37:24;13.40;99.90
59041;DHT22;44825;53.200;6.448;2022-10-17T02:39:52;13.40;99.90
59041;DHT22;44825;53.200;6.448;2022-10-17T02:42:19;13.40;99.90
59041;DHT22;44825;53.200;6.448;2022-10-17T02:44:47;13.40;99.90
59041;DHT22;44825;53.200;6.448;2022-10-17T02:47:16;13.40;99.90
59041;DHT22;44825;53.200;6.448;2022-10-17T02:49:45;13.30;99.90
59041;DHT22;44825;53.200;6.448;2022-10-17T02:52:13;13.40;99.90
59041;DHT22;44825;53.200;6.448;2022-10-17T02:54:44;13.30;99.90
59041;DHT22;44825;53.200;6.448;2022-10-17T02:57:14;13.30;99.90
59041;DHT22;44825;53.200;6.448;2022-10-17T02:59:42;13.30;99.90
59041;DHT22;44825;53.200;6.448;2022-10-17T03:02:09;13.30;99.90
59041;DHT22;44825;53.200;6.448;2022-10-17T03:04:36;13.30;99.90
59041;DHT22;44825;53.200;6.448;2022-10-17T03:07:03;13.40;99.90
59041;DHT22;44825;53.200;6.448;2022-10-17T03:09:29;13.30;99.90
59041;DHT22;44825;53.200;6.448;2022-10-17T03:11:57;13.30;99.90
59041;DHT22;44825;53.200;6.448;2022-10-17T03:14:24;13.40;99.90
59041;DHT22;44825;53.200;6.448;2022-10-17T03:16:50;13.30;99.90
59041;DHT22;44825;53.200;6.448;2022-10-17T03:19:17;13.30;99.90
59041;DHT22;44825;53.200;6.448;2022-10-17T03:21:44;13.30;99.90
59041;DHT22;44825;53.200;6.448;2022-10-17T03:24:10;13.30;99.90
59041;DHT22;44825;53.200;6.448;2022-10-17T03:26:37;13.30;99.90
59041;DHT22;44825;53.200;6.448;2022-10-17T03:29:05;13.30;99.90
59041;DHT22;44825;53.200;6.448;2022-10-17T03:31:32;13.30;99.90
59041;DHT22;44825;53.200;6.448;2022-10-17T03:34:00;13.30;99.90
59041;DHT22;44825;53.200;6.448;2022-10-17T03:36:27;13.40;99.90
59041;DHT22;44825;53.200;6.448;2022-10-17T03:38:53;13.40;99.90
59041;DHT22;44825;53.200;6.448;2022-10-17T03:41:20;13.30;99.90
59041;DHT22;44825;53.200;6.448;2022-10-17T03:43:46;13.30;99.90
59041;DHT22;44825;53.200;6.448;2022-10-17T03:46:14;13.30;99.90
59041;DHT22;44825;53.200;6.448;2022-10-17T03:48:41;13.40;99.90
59041;DHT22;44825;53.200;6.448;2022-10-17T03:51:08;13.30;99.90
59041;DHT22;44825;53.200;6.448;2022-10-17T03:53:35;13.40;99.90
59041;DHT22;44825;53.200;6.448;2022-10-17T03:56:09;13.40;99.90
59041;DHT22;44825;53.200;6.448;2022-10-17T03:58:35;13.40;99.90
59041;DHT22;44825;53.200;6.448;2022-10-17T04:01:02;13.40;99.90
59041;DHT22;44825;53.200;6.448;2022-10-17T04:03:30;13.40;99.90
59041;DHT22;44825;53.200;6.448;2022-10-17T04:05:57;13.50;99.90
59041;DHT22;44825;53.200;6.448;2022-10-17T04:08:24;13.40;99.90
59041;DHT22;44825;53.200;6.448;2022-10-17T04:10:51;13.40;99.90
59041;DHT22;44825;53.200;6.448;2022-10-17T04:13:17;13.40;99.90
59041;DHT22;44825;53.200;6.448;2022-10-17T04:15:52;13.50;99.90
59041;DHT22;44825;53.200;6.448;2022-10-17T04:18:18;13.50;99.90
59041;DHT22;44825;53.200;6.448;2022-10-17T04:20:46;13.50;99.90
59041;DHT22;44825;53.200;6.448;2022-10-17T04:23:13;13.50;99.90
59041;DHT22;44825;53.200;6.448;2022-10-17T04:25:40;13.50;99.90
59041;DHT22;44825;53.200;6.448;2022-10-17T04:28:06;13.60;99.90
59041;DHT22;44825;53.200;6.448;2022-10-17T04:30:33;13.60;99.90
59041;DHT22;44825;53.200;6.448;2022-10-17T04:33:00;13.70;99.90
59041;DHT22;44825;53.200;6.448;2022-10-17T04:35:26;13.70;99.90
59041;DHT22;44825;53.200;6.448;2022-10-17T04:37:54;13.70;99.90
59041;DHT22;44825;53.200;6.448;2022-10-17T04:40:21;13.70;99.90
59041;DHT22;44825;53.200;6.448;2022-10-17T04:42:48;13.80;99.90
59041;DHT22;44825;53.200;6.448;2022-10-17T04:45:14;13.80;99.90
59041;DHT22;44825;53.200;6.448;2022-10-17T04:47:41;13.80;99.90
59041;DHT22;44825;53.200;6.448;2022-10-17T04:50:08;13.90;99.90
59041;DHT22;44825;53.200;6.448;2022-10-17T04:52:34;13.80;99.90
59041;DHT22;44825;53.200;6.448;2022-10-17T04:55:04;13.90;99.90
59041;DHT22;44825;53.200;6.448;2022-10-17T04:57:32;13.90;99.90
59041;DHT22;44825;53.200;6.448;2022-10-17T04:59:59;14.00;99.90
59041;DHT22;44825;53.200;6.448;2022-10-17T05:02:26;13.90;99.90
59041;DHT22;44825;53.200;6.448;2022-10-17T05:04:52;14.00;99.90
59041;DHT22;44825;53.200;6.448;2022-10-17T05:07:19;14.00;99.90
59041;DHT22;44825;53.200;6.448;2022-10-17T05:09:46;14.00;99.90
59041;DHT22;44825;53.200;6.448;2022-10-17T05:12:14;14.00;99.90
59041;DHT22;44825;53.200;6.448;2022-10-17T05:14:40;14.00;99.90
59041;DHT22;44825;53.200;6.448;2022-10-17T05:17:07;14.00;99.90
59041;DHT22;44825;53.200;6.448;2022-10-17T05:19:34;14.00;99.90
59041;DHT22;44825;53.200;6.448;2022-10-17T05:22:00;14.10;99.90
59041;DHT22;44825;53.200;6.448;2022-10-17T05:24:27;14.10;99.90
59041;DHT22;44825;53.200;6.448;2022-10-17T05:26:53;14.10;99.90
59041;DHT22;44825;53.200;6.448;2022-10-17T05:29:22;14.10;99.90
59041;DHT22;44825;53.200;6.448;2022-10-17T05:31:48;14.10;99.90
59041;DHT22;44825;53.200;6.448;2022-10-17T05:34:15;14.20;99.90
59041;DHT22;44825;53.200;6.448;2022-10-17T05:36:41;14.10;99.90
59041;DHT22;44825;53.200;6.448;2022-10-17T05:39:08;14.20;99.90
59041;DHT22;44825;53.200;6.448;2022-10-17T05:41:37;14.20;99.90
59041;DHT22;44825;53.200;6.448;2022-10-17T05:44:04;14.20;99.90
59041;DHT22;44825;53.200;6.448;2022-10-17T05:46:32;14.20;99.90
59041;DHT22;44825;53.200;6.448;2022-10-17T05:48:59;14.20;99.90
59041;DHT22;44825;53.200;6.448;2022-10-17T05:51:26;14.30;99.90
59041;DHT22;44825;53.200;6.448;2022-10-17T05:53:53;14.30;99.90
59041;DHT22;44825;53.200;6.448;2022-10-17T05:56:19;14.30;99.90
59041;DHT22;44825;53.200;6.448;2022-10-17T05:58:46;14.30;99.90
59041;DHT22;44825;53.200;6.448;2022-10-17T06:01:13;14.40;99.90
59041;DHT22;44825;53.200;6.448;2022-10-17T06:03:41;14.40;99.90
59041;DHT22;44825;53.200;6.448;2022-10-17T06:06:08;14.40;99.90
59041;DHT22;44825;53.200;6.448;2022-10-17T06:08:35;14.40;99.90
59041;DHT22;44825;53.200;6.448;2022-10-17T06:11:02;14.50;99.90
59041;DHT22;44825;53.200;6.448;2022-10-17T06:13:28;14.50;99.90
59041;DHT22;44825;53.200;6.448;2022-10-17T06:15:55;14.50;99.90
59041;DHT22;44825;53.200;6.448;2022-10-17T06:18:22;14.50;99.90
59041;DHT22;44825;53.200;6.448;2022-10-17T06:20:51;14.50;99.90
59041;DHT22;44825;53.200;6.448;2022-10-17T06:23:17;14.50;99.90
59041;DHT22;44825;53.200;6.448;2022-10-17T06:25:44;14.60;99.90
59041;DHT22;44825;53.200;6.448;2022-10-17T06:28:11;14.60;99.90
59041;DHT22;44825;53.200;6.448;2022-10-17T06:30:38;14.60;99.90
59041;DHT22;44825;53.200;6.448;2022-10-17T06:33:04;14.60;99.90
59041;DHT22;44825;53.200;6.448;2022-10-17T06:35:31;14.60;99.90
59041;DHT22;44825;53.200;6.448;2022-10-17T06:37:59;14.60;99.90
59041;DHT22;44825;53.200;6.448;2022-10-17T06:40:26;14.70;99.90
59041;DHT22;44825;53.200;6.448;2022-10-17T06:42:55;14.60;99.90
59041;DHT22;44825;53.200;6.448;2022-10-17T06:45:21;14.70;99.90
59041;DHT22;44825;53.200;6.448;2022-10-17T06:47:48;14.70;99.90
59041;DHT22;44825;53.200;6.448;2022-10-17T06:50:15;14.70;99.90
59041;DHT22;44825;53.200;6.448;2022-10-17T06:52:41;14.70;99.90
59041;DHT22;44825;53.200;6.448;2022-10-17T06:55:09;14.70;99.90
59041;DHT22;44825;53.200;6.448;2022-10-17T06:57:36;14.70;99.90
59041;DHT22;44825;53.200;6.448;2022-10-17T07:00:06;14.70;99.90
59041;DHT22;44825;53.200;6.448;2022-10-17T07:02:32;14.70;99.90
59041;DHT22;44825;53.200;6.448;2022-10-17T07:04:59;14.80;99.90
59041;DHT22;44825;53.200;6.448;2022-10-17T07:07:26;14.70;99.90
59041;DHT22;44825;53.200;6.448;2022-10-17T07:09:55;14.80;99.90
59041;DHT22;44825;53.200;6.448;2022-10-17T07:12:23;14.80;99.90
59041;DHT22;44825;53.200;6.448;2022-10-17T07:14:50;14.80;99.90
59041;DHT22;44825;53.200;6.448;2022-10-17T07:17:16;14.80;99.90
59041;DHT22;44825;53.200;6.448;2022-10-17T07:19:43;14.90;99.90
59041;DHT22;44825;53.200;6.448;2022-10-17T07:22:10;14.90;99.90
59041;DHT22;44825;53.200;6.448;2022-10-17T07:24:37;14.90;99.90
59041;DHT22;44825;53.200;6.448;2022-10-17T07:27:04;14.90;99.90
59041;DHT22;44825;53.200;6.448;2022-10-17T07:29:32;15.00;99.90
59041;DHT22;44825;53.200;6.448;2022-10-17T07:31:58;15.00;99.90
59041;DHT22;44825;53.200;6.448;2022-10-17T07:34:25;15.00;99.90
59041;DHT22;44825;53.200;6.448;2022-10-17T07:36:55;15.10;99.90
59041;DHT22;44825;53.200;6.448;2022-10-17T07:39:21;15.10;99.90
59041;DHT22;44825;53.200;6.448;2022-10-17T07:41:48;15.10;99.90
59041;DHT22;44825;53.200;6.448;2022-10-17T07:44:15;15.20;99.90
59041;DHT22;44825;53.200;6.448;2022-10-17T07:46:43;15.20;99.90
59041;DHT22;44825;53.200;6.448;2022-10-17T07:49:09;15.30;99.90
59041;DHT22;44825;53.200;6.448;2022-10-17T07:51:37;15.30;99.90
59041;DHT22;44825;53.200;6.448;2022-10-17T07:56:37;15.40;99.90
59041;DHT22;44825;53.200;6.448;2022-10-17T07:59:03;15.30;99.90
59041;DHT22;44825;53.200;6.448;2022-10-17T08:01:30;15.40;99.90
59041;DHT22;44825;53.200;6.448;2022-10-17T08:03:58;15.40;99.90
59041;DHT22;44825;53.200;6.448;2022-10-17T08:06:25;15.50;99.90
59041;DHT22;44825;53.200;6.448;2022-10-17T08:08:55;15.60;99.90
59041;DHT22;44825;53.200;6.448;2022-10-17T08:11:23;15.70;99.90
59041;DHT22;44825;53.200;6.448;2022-10-17T08:13:49;15.80;99.90
59041;DHT22;44825;53.200;6.448;2022-10-17T08:16:16;15.80;99.90
59041;DHT22;44825;53.200;6.448;2022-10-17T08:18:43;15.90;99.90
59041;DHT22;44825;53.200;6.448;2022-10-17T08:21:11;15.90;99.90
59041;DHT22;44825;53.200;6.448;2022-10-17T08:23:38;15.90;99.90
59041;DHT22;44825;53.200;6.448;2022-10-17T08:26:06;16.00;99.90
59041;DHT22;44825;53.200;6.448;2022-10-17T08:28:35;15.90;99.90
59041;DHT22;44825;53.200;6.448;2022-10-17T08:31:02;16.00;99.90
59041;DHT22;44825;53.200;6.448;2022-10-17T08:33:29;16.00;99.90
59041;DHT22;44825;53.200;6.448;2022-10-17T08:35:58;16.00;99.90
59041;DHT22;44825;53.200;6.448;2022-10-17T08:38:27;16.10;99.90
59041;DHT22;44825;53.200;6.448;2022-10-17T08:40:54;16.10;99.90
59041;DHT22;44825;53.200;6.448;2022-10-17T08:43:26;16.10;99.90
59041;DHT22;44825;53.200;6.448;2022-10-17T08:45:56;16.20;99.90
59041;DHT22;44825;53.200;6.448;2022-10-17T08:48:26;16.20;99.90
59041;DHT22;44825;53.200;6.448;2022-10-17T08:50:55;16.20;99.90
59041;DHT22;44825;53.200;6.448;2022-10-17T08:53:23;16.20;99.90
59041;DHT22;44825;53.200;6.448;2022-10-17T08:55:52;16.20;99.90
59041;DHT22;44825;53.200;6.448;2022-10-17T08:58:20;16.30;99.90
59041;DHT22;44825;53.200;6.448;2022-10-17T09:00:50;16.40;99.90
59041;DHT22;44825;53.200;6.448;2022-10-17T09:03:26;16.40;99.90
59041;DHT22;44825;53.200;6.448;2022-10-17T09:05:55;16.40;99.90
59041;DHT22;44825;53.200;6.448;2022-10-17T09:08:34;16.40;99.90
59041;DHT22;44825;53.200;6.448;2022-10-17T09:11:08;16.40;99.90
59041;DHT22;44825;53.200;6.448;2022-10-17T09:13:40;16.40;99.90
59041;DHT22;44825;53.200;6.448;2022-10-17T09:16:22;16.40;99.90
59041;DHT22;44825;53.200;6.448;2022-10-17T09:18:54;16.40;99.90
59041;DHT22;44825;53.200;6.448;2022-10-17T09:21:24;16.50;99.90
59041;DHT22;44825;53.200;6.448;2022-10-17T09:23:53;16.50;99.90
59041;DHT22;44825;53.200;6.448;2022-10-17T09:26:22;16.50;99.90
59041;DHT22;44825;53.200;6.448;2022-10-17T09:28:50;16.50;99.90
59041;DHT22;44825;53.200;6.448;2022-10-17T09:31:19;16.50;99.90
59041;DHT22;44825;53.200;6.448;2022-10-17T09:33:48;16.50;99.90
59041;DHT22;44825;53.200;6.448;2022-10-17T09:36:16;16.50;99.90
59041;DHT22;44825;53.200;6.448;2022-10-17T09:38:43;16.50;99.90
59041;DHT22;44825;53.200;6.448;2022-10-17T09:41:18;16.50;99.90
59041;DHT22;44825;53.200;6.448;2022-10-17T09:43:47;16.50;99.90
59041;DHT22;44825;53.200;6.448;2022-10-17T09:46:16;16.50;99.90
59041;DHT22;44825;53.200;6.448;2022-10-17T09:48:44;16.50;99.90
59041;DHT22;44825;53.200;6.448;2022-10-17T09:51:11;16.50;99.90
59041;DHT22;44825;53.200;6.448;2022-10-17T09:53:39;16.50;99.90
59041;DHT22;44825;53.200;6.448;2022-10-17T09:56:07;16.50;99.90
59041;DHT22;44825;53.200;6.448;2022-10-17T09:58:40;16.40;99.90
59041;DHT22;44825;53.200;6.448;2022-10-17T10:01:16;16.50;99.90
59041;DHT22;44825;53.200;6.448;2022-10-17T10:03:43;16.50;99.90
59041;DHT22;44825;53.200;6.448;2022-10-17T10:06:12;16.40;99.90
59041;DHT22;44825;53.200;6.448;2022-10-17T10:08:46;16.40;99.90
59041;DHT22;44825;53.200;6.448;2022-10-17T10:11:14;16.40;99.90
59041;DHT22;44825;53.200;6.448;2022-10-17T10:13:42;16.40;99.90
59041;DHT22;44825;53.200;6.448;2022-10-17T10:16:13;16.30;99.90
59041;DHT22;44825;53.200;6.448;2022-10-17T10:18:41;16.30;99.90
59041;DHT22;44825;53.200;6.448;2022-10-17T10:21:09;16.30;99.90
59041;DHT22;44825;53.200;6.448;2022-10-17T10:23:37;16.30;99.90
59041;DHT22;44825;53.200;6.448;2022-10-17T10:26:09;16.30;99.90
59041;DHT22;44825;53.200;6.448;2022-10-17T10:28:36;16.30;99.90
59041;DHT22;44825;53.200;6.448;2022-10-17T10:31:04;16.30;99.90
59041;DHT22;44825;53.200;6.448;2022-10-17T10:33:32;16.20;99.90
59041;DHT22;44825;53.200;6.448;2022-10-17T10:36:02;16.20;99.90
59041;DHT22;44825;53.200;6.448;2022-10-17T10:38:29;16.20;99.90
59041;DHT22;44825;53.200;6.448;2022-10-17T10:41:00;16.20;99.90
59041;DHT22;44825;53.200;6.448;2022-10-17T10:43:29;16.20;99.90
59041;DHT22;44825;53.200;6.448;2022-10-17T10:45:57;16.20;99.90
59041;DHT22;44825;53.200;6.448;2022-10-17T10:48:25;16.20;99.90
59041;DHT22;44825;53.200;6.448;2022-10-17T10:50:53;16.20;99.90
59041;DHT22;44825;53.200;6.448;2022-10-17T10:53:27;16.30;99.90
59041;DHT22;44825;53.200;6.448;2022-10-17T10:55:55;16.20;99.90
59041;DHT22;44825;53.200;6.448;2022-10-17T10:58:26;16.20;99.90
59041;DHT22;44825;53.200;6.448;2022-10-17T11:00:57;16.20;99.90
59041;DHT22;44825;53.200;6.448;2022-10-17T11:03:27;16.20;99.90
59041;DHT22;44825;53.200;6.448;2022-10-17T11:05:56;16.20;99.90
59041;DHT22;44825;53.200;6.448;2022-10-17T11:08:27;16.30;99.90
59041;DHT22;44825;53.200;6.448;2022-10-17T11:10:58;16.30;99.90
59041;DHT22;44825;53.200;6.448;2022-10-17T11:13:26;16.30;99.90
59041;DHT22;44825;53.200;6.448;2022-10-17T11:15:56;16.30;99.90
59041;DHT22;44825;53.200;6.448;2022-10-17T11:18:25;16.30;99.90
59041;DHT22;44825;53.200;6.448;2022-10-17T11:20:54;16.40;99.90
59041;DHT22;44825;53.200;6.448;2022-10-17T11:23:23;16.40;99.90
59041;DHT22;44825;53.200;6.448;2022-10-17T11:25:56;16.40;99.90
59041;DHT22;44825;53.200;6.448;2022-10-17T11:28:23;16.40;99.90
59041;DHT22;44825;53.200;6.448;2022-10-17T11:30:51;16.40;99.90
59041;DHT22;44825;53.200;6.448;2022-10-17T11:33:23;16.40;99.90
59041;DHT22;44825;53.200;6.448;2022-10-17T11:35:51;16.40;99.90
59041;DHT22;44825;53.200;6.448;2022-10-17T11:38:20;16.40;99.90
59041;DHT22;44825;53.200;6.448;2022-10-17T11:40:48;16.40;99.90
59041;DHT22;44825;53.200;6.448;2022-10-17T11:43:17;16.40;99.90
59041;DHT22;44825;53.200;6.448;2022-10-17T11:45:46;16.40;99.90
59041;DHT22;44825;53.200;6.448;2022-10-17T11:48:16;16.40;99.90
59041;DHT22;44825;53.200;6.448;2022-10-17T11:50:44;16.40;99.90
59041;DHT22;44825;53.200;6.448;2022-10-17T11:53:13;16.40;99.90
59041;DHT22;44825;53.200;6.448;2022-10-17T11:55:40;16.40;99.90
59041;DHT22;44825;53.200;6.448;2022-10-17T12:00:55;16.40;99.90
59041;DHT22;44825;53.200;6.448;2022-10-17T12:03:29;16.40;99.90
59041;DHT22;44825;53.200;6.448;2022-10-17T12:05:58;16.40;99.90
59041;DHT22;44825;53.200;6.448;2022-10-17T12:08:29;16.40;99.90
59041;DHT22;44825;53.200;6.448;2022-10-17T12:11:00;16.40;99.90
59041;DHT22;44825;53.200;6.448;2022-10-17T12:13:48;16.40;99.90
59041;DHT22;44825;53.200;6.448;2022-10-17T12:21:53;16.40;99.90
59041;DHT22;44825;53.200;6.448;2022-10-17T12:24:23;16.40;99.90
59041;DHT22;44825;53.200;6.448;2022-10-17T12:26:52;16.40;99.90
59041;DHT22;44825;53.200;6.448;2022-10-17T12:29:23;16.50;99.90
59041;DHT22;44825;53.200;6.448;2022-10-17T12:31:51;16.50;99.90
59041;DHT22;44825;53.200;6.448;2022-10-17T12:34:18;16.50;99.90
59041;DHT22;44825;53.200;6.448;2022-10-17T12:36:47;16.50;99.90
59041;DHT22;44825;53.200;6.448;2022-10-17T12:42:19;16.50;99.90
59041;DHT22;44825;53.200;6.448;2022-10-17T12:44:53;16.50;99.90
59041;DHT22;44825;53.200;6.448;2022-10-17T12:47:27;16.50;99.90
59041;DHT22;44825;53.200;6.448;2022-10-17T12:49:54;16.50;99.90
59041;DHT22;44825;53.200;6.448;2022-10-17T12:52:24;16.50;99.90
59041;DHT22;44825;53.200;6.448;2022-10-17T12:54:53;16.50;99.90
59041;DHT22;44825;53.200;6.448;2022-10-17T12:57:23;16.50;99.90
59041;DHT22;44825;53.200;6.448;2022-10-17T12:59:51;16.40;99.90
59041;DHT22;44825;53.200;6.448;2022-10-17T13:02:20;16.40;99.90
59041;DHT22;44825;53.200;6.448;2022-10-17T13:04:49;16.40;99.90
59041;DHT22;44825;53.200;6.448;2022-10-17T13:07:17;16.40;99.90
59041;DHT22;44825;53.200;6.448;2022-10-17T13:09:44;16.40;99.90
59041;DHT22;44825;53.200;6.448;2022-10-17T13:12:12;16.30;99.90
59041;DHT22;44825;53.200;6.448;2022-10-17T13:14:41;16.30;99.90
59041;DHT22;44825;53.200;6.448;2022-10-17T13:17:19;16.30;99.90
59041;DHT22;44825;53.200;6.448;2022-10-17T13:19:48;16.30;99.90
59041;DHT22;44825;53.200;6.448;2022-10-17T13:22:15;16.30;99.90
59041;DHT22;44825;53.200;6.448;2022-10-17T13:24:42;16.20;99.90
59041;DHT22;44825;53.200;6.448;2022-10-17T13:27:20;16.20;99.90
59041;DHT22;44825;53.200;6.448;2022-10-17T13:29:47;16.20;99.90
59041;DHT22;44825;53.200;6.448;2022-10-17T13:32:14;16.20;99.90
59041;DHT22;44825;53.200;6.448;2022-10-17T13:34:41;16.20;99.90
59041;DHT22;44825;53.200;6.448;2022-10-17T13:37:11;16.20;99.90
59041;DHT22;44825;53.200;6.448;2022-10-17T13:39:40;16.20;99.90
59041;DHT22;44825;53.200;6.448;2022-10-17T13:42:20;16.20;99.90
59041;DHT22;44825;53.200;6.448;2022-10-17T13:44:47;16.10;99.90
59041;DHT22;44825;53.200;6.448;2022-10-17T13:47:21;16.10;99.90
59041;DHT22;44825;53.200;6.448;2022-10-17T13:49:48;16.10;99.90
59041;DHT22;44825;53.200;6.448;2022-10-17T13:52:17;16.10;99.90
59041;DHT22;44825;53.200;6.448;2022-10-17T13:54:45;16.10;99.90
59041;DHT22;44825;53.200;6.448;2022-10-17T13:57:19;16.10;99.90
59041;DHT22;44825;53.200;6.448;2022-10-17T13:59:46;16.00;99.90
59041;DHT22;44825;53.200;6.448;2022-10-17T14:02:15;16.00;99.90
59041;DHT22;44825;53.200;6.448;2022-10-17T14:04:42;16.00;99.90
59041;DHT22;44825;53.200;6.448;2022-10-17T14:07:18;16.00;99.90
59041;DHT22;44825;53.200;6.448;2022-10-17T14:09:46;16.00;99.90
59041;DHT22;44825;53.200;6.448;2022-10-17T14:12:13;16.00;99.90
59041;DHT22;44825;53.200;6.448;2022-10-17T14:14:45;16.00;99.90
59041;DHT22;44825;53.200;6.448;2022-10-17T14:17:12;16.00;99.90
59041;DHT22;44825;53.200;6.448;2022-10-17T14:19:39;15.90;99.90
59041;DHT22;44825;53.200;6.448;2022-10-17T14:22:14;15.90;99.90
59041;DHT22;44825;53.200;6.448;2022-10-17T14:24:43;15.90;99.90
59041;DHT22;44825;53.200;6.448;2022-10-17T14:27:26;15.90;99.90
59041;DHT22;44825;53.200;6.448;2022-10-17T14:29:53;15.90;99.90
59041;DHT22;44825;53.200;6.448;2022-10-17T14:32:22;15.90;99.90
59041;DHT22;44825;53.200;6.448;2022-10-17T14:34:55;15.90;99.90
59041;DHT22;44825;53.200;6.448;2022-10-17T14:37:27;15.90;99.90
59041;DHT22;44825;53.200;6.448;2022-10-17T14:39:58;15.90;99.90
59041;DHT22;44825;53.200;6.448;2022-10-17T14:42:26;15.90;99.90
59041;DHT22;44825;53.200;6.448;2022-10-17T14:44:55;15.90;99.90
59041;DHT22;44825;53.200;6.448;2022-10-17T14:47:25;15.90;99.90
59041;DHT22;44825;53.200;6.448;2022-10-17T14:50:01;15.90;99.90
59041;DHT22;44825;53.200;6.448;2022-10-17T14:52:29;15.90;99.90
59041;DHT22;44825;53.200;6.448;2022-10-17T14:54:56;15.90;99.90
59041;DHT22;44825;53.200;6.448;2022-10-17T14:57:26;15.90;99.90
59041;DHT22;44825;53.200;6.448;2022-10-17T14:59:53;15.90;99.90
59041;DHT22;44825;53.200;6.448;2022-10-17T15:02:20;15.80;99.90
59041;DHT22;44825;53.200;6.448;2022-10-17T15:04:47;15.80;99.90
59041;DHT22;44825;53.200;6.448;2022-10-17T15:07:14;15.80;99.90
59041;DHT22;44825;53.200;6.448;2022-10-17T15:09:41;15.80;99.90
59041;DHT22;44825;53.200;6.448;2022-10-17T15:12:11;15.80;99.90
59041;DHT22;44825;53.200;6.448;2022-10-17T15:14:40;15.80;99.90
59041;DHT22;44825;53.200;6.448;2022-10-17T15:17:09;15.80;99.90
59041;DHT22;44825;53.200;6.448;2022-10-17T15:19:37;15.80;99.90
59041;DHT22;44825;53.200;6.448;2022-10-17T15:22:04;15.80;99.90
59041;DHT22;44825;53.200;6.448;2022-10-17T15:24:31;15.80;99.90
59041;DHT22;44825;53.200;6.448;2022-10-17T15:26:57;15.80;99.90
59041;DHT22;44825;53.200;6.448;2022-10-17T15:29:24;15.80;99.90
59041;DHT22;44825;53.200;6.448;2022-10-17T15:31:52;15.80;99.90
59041;DHT22;44825;53.200;6.448;2022-10-17T15:34:19;15.80;99.90
59041;DHT22;44825;53.200;6.448;2022-10-17T15:36:47;15.80;99.90
59041;DHT22;44825;53.200;6.448;2022-10-17T15:39:14;15.80;99.90
59041;DHT22;44825;53.200;6.448;2022-10-17T15:41:41;15.80;99.90
59041;DHT22;44825;53.200;6.448;2022-10-17T15:44:09;15.80;99.90
59041;DHT22;44825;53.200;6.448;2022-10-17T15:46:36;15.70;99.90
59041;DHT22;44825;53.200;6.448;2022-10-17T15:49:08;15.60;99.90
59041;DHT22;44825;53.200;6.448;2022-10-17T15:51:35;15.70;99.90
59041;DHT22;44825;53.200;6.448;2022-10-17T15:54:02;15.60;99.90
59041;DHT22;44825;53.200;6.448;2022-10-17T15:56:30;15.60;99.90